Betty K Ix — 3FTL3 — position and weather

sailwx.info

Track history (hours):
 
Tides and Currents Weather Stations Pressure Air Temp Water Temp Dewpoint Dewpoint Depression Visibility Wind Speed Wind Dir Waves Ship Positions

Betty K Ix

Last reported at 2017-Dec-15 15:30 UTC. Time now 2017-Dec-15 15:55 UTC.
Position N 17°08' W 061°51'.

Length 86 m; draft 5 m.

Type: Cargo ship. MMSI: 354064000.

Date/timePositionNaut miles runAvg speedWind from/ knotsBaromVisibWave heightAir tempDewpointWater temp
2017-Dec-15 15:30N 17°08' W 061°51'0 0.0
2017-Dec-15 15:00N 17°08' W 061°51'0 0.0
2017-Dec-15 14:30N 17°08' W 061°51'0 0.0
2017-Dec-15 13:57N 17°08' W 061°51'0 0.0
2017-Dec-15 13:27N 17°08' W 061°51'0 0.0
2017-Dec-15 13:00N 17°08' W 061°51'0 0.8
2017-Dec-15 12:30N 17°08' W 061°52'3 6.6
2017-Dec-15 12:00N 17°09' W 061°55'5 9.5
2017-Dec-15 11:30N 17°11' W 061°60'3 6.4
2017-Dec-15 11:00N 17°12' W 062°03'3 5.0
2017-Dec-15 10:31N 17°12' W 062°05'3 5.6
2017-Dec-15 10:01N 17°12' W 062°02'510.2
2017-Dec-15 09:30N 17°14' W 062°07'510.5
2017-Dec-15 09:01N 17°16' W 062°12'510.3
2017-Dec-15 08:31N 17°18' W 062°17'510.2
2017-Dec-15 08:00N 17°21' W 062°22'510.4
2017-Dec-15 07:30N 17°24' W 062°26'510.3
2017-Dec-15 07:00N 17°27' W 062°30'3610.4
2017-Dec-15 03:33N 17°50' W 062°59'1110.0
2017-Dec-15 02:25N 18°00' W 063°04'1 0.7
2017-Dec-15 00:52N 18°00' W 063°03'0 0.0
2017-Dec-15 00:28N 18°00' W 063°03'0 0.0
2017-Dec-14 18:28N 18°00' W 063°03'0 0.0
2017-Dec-14 17:58N 18°00' W 063°03'0 0.0
2017-Dec-14 17:16N 18°00' W 063°03'0 0.0
2017-Dec-14 16:49N 18°00' W 063°03'0 0.0
2017-Dec-14 16:22N 18°00' W 063°03'0 0.0
2017-Dec-14 15:52N 18°00' W 063°03'0 0.0
2017-Dec-14 14:52N 18°00' W 063°03'2 3.2
2017-Dec-14 14:09N 17°60' W 063°05'1 8.3
2017-Dec-14 13:59N 17°59' W 063°06'510.1
2017-Dec-14 13:29N 17°54' W 063°04'711.4
2017-Dec-14 12:55N 17°49' W 062°60'711.6
2017-Dec-14 12:18N 17°43' W 062°55'3911.8
2017-Dec-14 08:59N 17°16' W 062°26'612.1
2017-Dec-14 08:30N 17°12' W 062°21'612.1
2017-Dec-14 08:00N 17°08' W 062°17'711.9
2017-Dec-14 07:28N 17°03' W 062°12'512.0
2017-Dec-14 07:00N 16°59' W 062°08'611.6
2017-Dec-14 06:30N 16°54' W 062°05'611.9
2017-Dec-14 06:00N 16°48' W 062°04'611.8
2017-Dec-14 05:30N 16°43' W 062°02'611.8
2017-Dec-14 05:00N 16°37' W 062°01'611.7
2017-Dec-14 04:30N 16°31' W 061°60'611.8
2017-Dec-14 04:00N 16°25' W 061°58'611.7
2017-Dec-14 03:30N 16°20' W 061°57'611.6
2017-Dec-14 03:00N 16°14' W 061°55'611.5
2017-Dec-14 02:30N 16°08' W 061°54'1211.3
2017-Dec-14 01:29N 15°58' W 061°49'511.2
2017-Dec-14 01:00N 15°55' W 061°44'811.6
2017-Dec-14 00:19N 15°57' W 061°36'511.0
2017-Dec-13 23:55N 16°00' W 061°32'710.8
2017-Dec-13 23:17N 16°07' W 061°30'411.2
2017-Dec-13 22:56N 16°10' W 061°31'4 6.5
2017-Dec-13 22:22N 16°14' W 061°33'0 0.1
2017-Dec-13 21:58N 16°14' W 061°33'0 0.0
2017-Dec-13 21:28N 16°14' W 061°33'0 0.0
2017-Dec-13 20:55N 16°14' W 061°33'0 0.0
2017-Dec-13 20:25N 16°14' W 061°33'0 0.0
2017-Dec-13 19:58N 16°14' W 061°33'0 0.0
2017-Dec-13 19:28N 16°14' W 061°33'0 0.0
2017-Dec-13 18:55N 16°14' W 061°33'0 0.0
2017-Dec-13 18:28N 16°14' W 061°33'0 0.0
2017-Dec-13 17:55N 16°14' W 061°33'0 0.0
2017-Dec-13 17:28N 16°14' W 061°33'0 0.0
2017-Dec-13 16:58N 16°14' W 061°33'0 0.0
2017-Dec-13 16:28N 16°14' W 061°33'0 0.0
2017-Dec-13 15:58N 16°14' W 061°33'0 0.0
2017-Dec-13 15:22N 16°14' W 061°33'0 0.0
2017-Dec-13 14:58N 16°14' W 061°33'0 0.0
2017-Dec-13 14:22N 16°14' W 061°33'0 0.0
2017-Dec-13 13:58N 16°14' W 061°33'0 0.0
2017-Dec-13 13:25N 16°14' W 061°33'0 0.0
2017-Dec-13 12:58N 16°14' W 061°33'0 0.0
2017-Dec-13 12:28N 16°14' W 061°33'0 0.0
2017-Dec-13 11:58N 16°14' W 061°33'0 0.0
2017-Dec-13 11:25N 16°14' W 061°33'0 0.0
2017-Dec-13 10:58N 16°14' W 061°33'0 0.0
2017-Dec-13 10:28N 16°14' W 061°33'0 0.0
2017-Dec-13 09:58N 16°14' W 061°33'0 0.0
2017-Dec-13 09:28N 16°14' W 061°33'0 0.0
2017-Dec-13 09:00N 16°14' W 061°33'3 6.0
2017-Dec-13 08:29N 16°11' W 061°31'4 8.4
2017-Dec-13 08:00N 16°07' W 061°29'0 0.6
2017-Dec-13 07:28N 16°08' W 061°29'0 0.5
2017-Dec-13 06:57N 16°08' W 061°29'0 0.4
2017-Dec-13 06:10N 16°08' W 061°28'0 0.3
2017-Dec-13 05:52N 16°08' W 061°28'0 0.3
2017-Dec-13 05:30N 16°08' W 061°28'0 0.3
2017-Dec-13 05:01N 16°08' W 061°28'0 0.3
2017-Dec-13 04:25N 16°08' W 061°28'2 4.5
2017-Dec-13 03:56N 16°06' W 061°27'512.6
2017-Dec-13 03:30N 16°01' W 061°30'711.6
2017-Dec-13 02:56N 15°57' W 061°35'1011.7
2017-Dec-13 02:03N 15°55' W 061°46'5112.1
2017-Dec-12 21:50N 16°23' W 062°30'411.5
2017-Dec-12 21:30N 16°25' W 062°33'611.6
2017-Dec-12 21:00N 16°28' W 062°38'611.4
2017-Dec-12 20:29N 16°32' W 062°44'15611.3
2017-Dec-12 06:41N 18°07' W 064°53'411.7
2017-Dec-12 06:21N 18°09' W 064°56'411.8
2017-Dec-12 06:01N 18°11' W 064°60'611.7
2017-Dec-12 05:31N 18°15' W 065°05'511.0
2017-Dec-12 05:01N 18°19' W 065°09'611.3
2017-Dec-12 04:30N 18°24' W 065°11'610.9
2017-Dec-12 03:57N 18°28' W 065°16'4 0.1
2017-Dec-10 00:37N 18°25' W 065°12'111.6
2017-Dec-10 00:30N 18°25' W 065°11'612.0
2017-Dec-10 00:00N 18°19' W 065°08'612.1
2017-Dec-09 23:30N 18°14' W 065°05'612.0
2017-Dec-09 23:00N 18°11' W 064°60'611.8
2017-Dec-09 22:30N 18°07' W 064°55'15610.5
2017-Dec-09 07:43N 16°33' W 062°45'210.6
2017-Dec-09 07:30N 16°32' W 062°43'510.6
2017-Dec-09 07:00N 16°29' W 062°39'510.7
2017-Dec-09 06:30N 16°26' W 062°34'510.7
2017-Dec-09 06:00N 16°23' W 062°29'710.6
2017-Dec-09 05:23N 16°19' W 062°23'4110.6
2017-Dec-09 01:31N 15°57' W 061°48'011.2
2017-Dec-09 01:29N 15°57' W 061°47'510.9
2017-Dec-09 01:00N 15°55' W 061°42'711.7
2017-Dec-09 00:24N 15°57' W 061°36'910.4
2017-Dec-08 23:29N 16°05' W 061°30'610.3
2017-Dec-08 22:53N 16°11' W 061°31'3 7.6
2017-Dec-08 22:30N 16°14' W 061°33'0 0.0
2017-Dec-08 20:33N 16°14' W 061°33'0 0.0
2017-Dec-08 20:15N 16°14' W 061°33'0 0.0
2017-Dec-08 20:00N 16°14' W 061°33'0 0.0
2017-Dec-08 19:27N 16°14' W 061°33'0 0.0
2017-Dec-08 18:42N 16°14' W 061°33'0 0.0
2017-Dec-08 17:51N 16°14' W 061°33'0 0.0
2017-Dec-08 17:21N 16°14' W 061°33'0 0.0
2017-Dec-08 16:33N 16°14' W 061°33'0 0.1
2017-Dec-08 16:30N 16°14' W 061°33'0 0.0
2017-Dec-08 16:00N 16°14' W 061°33'0 0.0
2017-Dec-08 15:15N 16°14' W 061°33'0 0.0
2017-Dec-08 15:00N 16°14' W 061°33'0 0.0
2017-Dec-08 14:24N 16°14' W 061°33'0 0.0
2017-Dec-08 14:00N 16°14' W 061°33'0 0.0
2017-Dec-08 13:30N 16°14' W 061°33'0 0.0
2017-Dec-08 12:45N 16°14' W 061°33'0 0.0
2017-Dec-08 12:30N 16°14' W 061°33'0 0.0
2017-Dec-08 11:51N 16°14' W 061°33'0 0.0
2017-Dec-08 11:24N 16°14' W 061°33'0 0.0
2017-Dec-08 10:27N 16°14' W 061°33'1 2.5
2017-Dec-08 10:00N 16°13' W 061°32'16 2.3
2017-Dec-08 02:54N 15°57' W 061°35'28 8.7
2017-Dec-07 23:41N 16°18' W 061°56'311.3
2017-Dec-07 23:23N 16°21' W 061°56'411.6
2017-Dec-07 23:00N 16°25' W 061°54'611.5
2017-Dec-07 22:30N 16°30' W 061°51'611.2
2017-Dec-07 22:00N 16°35' W 061°48'611.1
2017-Dec-07 21:30N 16°39' W 061°45'4 7.2
2017-Dec-07 21:00N 16°43' W 061°46'4 8.9
2017-Dec-07 20:30N 16°45' W 061°50'5 9.3
2017-Dec-07 20:00N 16°48' W 061°54'4 8.9
2017-Dec-07 19:30N 16°51' W 061°57'510.9
2017-Dec-07 19:00N 16°57' W 061°57'611.2
2017-Dec-07 18:30N 17°02' W 061°57'510.5
2017-Dec-07 18:00N 17°07' W 061°55'4 7.8
2017-Dec-07 17:30N 17°08' W 061°51'0 0.0
2017-Dec-07 16:59N 17°08' W 061°51'0 0.0
2017-Dec-07 16:29N 17°08' W 061°51'0 0.0
2017-Dec-07 15:59N 17°08' W 061°51'0 0.0
2017-Dec-07 15:29N 17°08' W 061°51'0 0.0
2017-Dec-07 14:59N 17°08' W 061°51'0 0.0
2017-Dec-07 14:29N 17°08' W 061°51'0 0.0
2017-Dec-07 13:59N 17°08' W 061°51'0 0.0
2017-Dec-07 13:26N 17°08' W 061°51'0 0.0
2017-Dec-07 12:59N 17°08' W 061°51'0 0.0
2017-Dec-07 12:29N 17°08' W 061°51'0 0.1
2017-Dec-07 11:59N 17°08' W 061°51'0 0.0
2017-Dec-07 11:29N 17°08' W 061°51'0 0.0
2017-Dec-07 10:59N 17°08' W 061°51'0 0.0
2017-Dec-07 10:29N 17°08' W 061°51'0 0.0
2017-Dec-07 09:59N 17°08' W 061°51'0 0.0
2017-Dec-07 09:26N 17°08' W 061°51'0 0.0
2017-Dec-07 08:59N 17°08' W 061°51'0 0.0
2017-Dec-07 08:29N 17°08' W 061°51'0 0.0
2017-Dec-07 07:59N 17°08' W 061°51'0 0.0
2017-Dec-07 07:29N 17°08' W 061°51'0 0.0
2017-Dec-07 06:59N 17°08' W 061°51'0 0.0
2017-Dec-07 06:29N 17°08' W 061°51'0 0.0
2017-Dec-07 06:01N 17°08' W 061°51'0 0.0
2017-Dec-07 05:31N 17°08' W 061°51'0 0.0
2017-Dec-07 05:01N 17°08' W 061°51'2 4.3
2017-Dec-07 04:30N 17°08' W 061°53'1 1.6
2017-Dec-07 04:01N 17°08' W 061°54'1 1.1
2017-Dec-07 03:31N 17°09' W 061°55'510.3
2017-Dec-07 03:01N 17°11' W 061°60'510.4
2017-Dec-07 02:31N 17°13' W 062°05'511.0
2017-Dec-07 02:01N 17°15' W 062°10'510.9
2017-Dec-07 01:30N 17°18' W 062°15'510.7
2017-Dec-07 01:00N 17°20' W 062°20'510.5
2017-Dec-07 00:30N 17°23' W 062°25'510.3
2017-Dec-07 00:01N 17°26' W 062°29'  
Track history (hours):
 
Tides and Currents Weather Stations Pressure Air Temp Water Temp Dewpoint Dewpoint Depression Visibility Wind Speed Wind Dir Waves Ship Positions

Betty K Ix

Last reported at 2017-Dec-15 15:30 UTC. Time now 2017-Dec-15 15:55 UTC.
Position N 17°08' W 061°51'.

Length 86 m; draft 5 m.

Type: Cargo ship. MMSI: 354064000.

Date/timePositionNaut miles runAvg speedWind from/ knotsBaromVisibWave heightAir tempDewpointWater temp
2017-Dec-15 15:30N 17°08' W 061°51'0 0.0
2017-Dec-15 15:00N 17°08' W 061°51'0 0.0
2017-Dec-15 14:30N 17°08' W 061°51'0 0.0
2017-Dec-15 13:57N 17°08' W 061°51'0 0.0
2017-Dec-15 13:27N 17°08' W 061°51'0 0.0
2017-Dec-15 13:00N 17°08' W 061°51'0 0.8
2017-Dec-15 12:30N 17°08' W 061°52'3 6.6
2017-Dec-15 12:00N 17°09' W 061°55'5 9.5
2017-Dec-15 11:30N 17°11' W 061°60'3 6.4
2017-Dec-15 11:00N 17°12' W 062°03'3 5.0
2017-Dec-15 10:31N 17°12' W 062°05'3 5.6
2017-Dec-15 10:01N 17°12' W 062°02'510.2
2017-Dec-15 09:30N 17°14' W 062°07'510.5
2017-Dec-15 09:01N 17°16' W 062°12'510.3
2017-Dec-15 08:31N 17°18' W 062°17'510.2
2017-Dec-15 08:00N 17°21' W 062°22'510.4
2017-Dec-15 07:30N 17°24' W 062°26'510.3
2017-Dec-15 07:00N 17°27' W 062°30'3610.4
2017-Dec-15 03:33N 17°50' W 062°59'1110.0
2017-Dec-15 02:25N 18°00' W 063°04'1 0.7
2017-Dec-15 00:52N 18°00' W 063°03'0 0.0
2017-Dec-15 00:28N 18°00' W 063°03'0 0.0
2017-Dec-14 18:28N 18°00' W 063°03'0 0.0
2017-Dec-14 17:58N 18°00' W 063°03'0 0.0
2017-Dec-14 17:16N 18°00' W 063°03'0 0.0
2017-Dec-14 16:49N 18°00' W 063°03'0 0.0
2017-Dec-14 16:22N 18°00' W 063°03'0 0.0
2017-Dec-14 15:52N 18°00' W 063°03'0 0.0
2017-Dec-14 14:52N 18°00' W 063°03'2 3.2
2017-Dec-14 14:09N 17°60' W 063°05'1 8.3
2017-Dec-14 13:59N 17°59' W 063°06'510.1
2017-Dec-14 13:29N 17°54' W 063°04'711.4
2017-Dec-14 12:55N 17°49' W 062°60'711.6
2017-Dec-14 12:18N 17°43' W 062°55'3911.8
2017-Dec-14 08:59N 17°16' W 062°26'612.1
2017-Dec-14 08:30N 17°12' W 062°21'612.1
2017-Dec-14 08:00N 17°08' W 062°17'711.9
2017-Dec-14 07:28N 17°03' W 062°12'512.0
2017-Dec-14 07:00N 16°59' W 062°08'611.6
2017-Dec-14 06:30N 16°54' W 062°05'611.9
2017-Dec-14 06:00N 16°48' W 062°04'611.8
2017-Dec-14 05:30N 16°43' W 062°02'611.8
2017-Dec-14 05:00N 16°37' W 062°01'611.7
2017-Dec-14 04:30N 16°31' W 061°60'611.8
2017-Dec-14 04:00N 16°25' W 061°58'611.7
2017-Dec-14 03:30N 16°20' W 061°57'611.6
2017-Dec-14 03:00N 16°14' W 061°55'611.5
2017-Dec-14 02:30N 16°08' W 061°54'1211.3
2017-Dec-14 01:29N 15°58' W 061°49'511.2
2017-Dec-14 01:00N 15°55' W 061°44'811.6
2017-Dec-14 00:19N 15°57' W 061°36'511.0
2017-Dec-13 23:55N 16°00' W 061°32'710.8
2017-Dec-13 23:17N 16°07' W 061°30'411.2
2017-Dec-13 22:56N 16°10' W 061°31'4 6.5
2017-Dec-13 22:22N 16°14' W 061°33'0 0.1
2017-Dec-13 21:58N 16°14' W 061°33'0 0.0
2017-Dec-13 21:28N 16°14' W 061°33'0 0.0
2017-Dec-13 20:55N 16°14' W 061°33'0 0.0
2017-Dec-13 20:25N 16°14' W 061°33'0 0.0
2017-Dec-13 19:58N 16°14' W 061°33'0 0.0
2017-Dec-13 19:28N 16°14' W 061°33'0 0.0
2017-Dec-13 18:55N 16°14' W 061°33'0 0.0
2017-Dec-13 18:28N 16°14' W 061°33'0 0.0
2017-Dec-13 17:55N 16°14' W 061°33'0 0.0
2017-Dec-13 17:28N 16°14' W 061°33'0 0.0
2017-Dec-13 16:58N 16°14' W 061°33'0 0.0
2017-Dec-13 16:28N 16°14' W 061°33'0 0.0
2017-Dec-13 15:58N 16°14' W 061°33'0 0.0
2017-Dec-13 15:22N 16°14' W 061°33'0 0.0
2017-Dec-13 14:58N 16°14' W 061°33'0 0.0
2017-Dec-13 14:22N 16°14' W 061°33'0 0.0
2017-Dec-13 13:58N 16°14' W 061°33'0 0.0
2017-Dec-13 13:25N 16°14' W 061°33'0 0.0
2017-Dec-13 12:58N 16°14' W 061°33'0 0.0
2017-Dec-13 12:28N 16°14' W 061°33'0 0.0
2017-Dec-13 11:58N 16°14' W 061°33'0 0.0
2017-Dec-13 11:25N 16°14' W 061°33'0 0.0
2017-Dec-13 10:58N 16°14' W 061°33'0 0.0
2017-Dec-13 10:28N 16°14' W 061°33'0 0.0
2017-Dec-13 09:58N 16°14' W 061°33'0 0.0
2017-Dec-13 09:28N 16°14' W 061°33'0 0.0
2017-Dec-13 09:00N 16°14' W 061°33'3 6.0
2017-Dec-13 08:29N 16°11' W 061°31'4 8.4
2017-Dec-13 08:00N 16°07' W 061°29'0 0.6
2017-Dec-13 07:28N 16°08' W 061°29'0 0.5
2017-Dec-13 06:57N 16°08' W 061°29'0 0.4
2017-Dec-13 06:10N 16°08' W 061°28'0 0.3
2017-Dec-13 05:52N 16°08' W 061°28'0 0.3
2017-Dec-13 05:30N 16°08' W 061°28'0 0.3
2017-Dec-13 05:01N 16°08' W 061°28'0 0.3
2017-Dec-13 04:25N 16°08' W 061°28'2 4.5
2017-Dec-13 03:56N 16°06' W 061°27'512.6
2017-Dec-13 03:30N 16°01' W 061°30'711.6
2017-Dec-13 02:56N 15°57' W 061°35'1011.7
2017-Dec-13 02:03N 15°55' W 061°46'5112.1
2017-Dec-12 21:50N 16°23' W 062°30'411.5
2017-Dec-12 21:30N 16°25' W 062°33'611.6
2017-Dec-12 21:00N 16°28' W 062°38'611.4
2017-Dec-12 20:29N 16°32' W 062°44'15611.3
2017-Dec-12 06:41N 18°07' W 064°53'411.7
2017-Dec-12 06:21N 18°09' W 064°56'411.8
2017-Dec-12 06:01N 18°11' W 064°60'611.7
2017-Dec-12 05:31N 18°15' W 065°05'511.0
2017-Dec-12 05:01N 18°19' W 065°09'611.3
2017-Dec-12 04:30N 18°24' W 065°11'610.9
2017-Dec-12 03:57N 18°28' W 065°16'4 0.1
2017-Dec-10 00:37N 18°25' W 065°12'111.6
2017-Dec-10 00:30N 18°25' W 065°11'612.0
2017-Dec-10 00:00N 18°19' W 065°08'612.1
2017-Dec-09 23:30N 18°14' W 065°05'612.0
2017-Dec-09 23:00N 18°11' W 064°60'611.8
2017-Dec-09 22:30N 18°07' W 064°55'15610.5
2017-Dec-09 07:43N 16°33' W 062°45'210.6
2017-Dec-09 07:30N 16°32' W 062°43'510.6
2017-Dec-09 07:00N 16°29' W 062°39'510.7
2017-Dec-09 06:30N 16°26' W 062°34'510.7
2017-Dec-09 06:00N 16°23' W 062°29'710.6
2017-Dec-09 05:23N 16°19' W 062°23'4110.6
2017-Dec-09 01:31N 15°57' W 061°48'011.2
2017-Dec-09 01:29N 15°57' W 061°47'510.9
2017-Dec-09 01:00N 15°55' W 061°42'711.7
2017-Dec-09 00:24N 15°57' W 061°36'910.4
2017-Dec-08 23:29N 16°05' W 061°30'610.3
2017-Dec-08 22:53N 16°11' W 061°31'3 7.6
2017-Dec-08 22:30N 16°14' W 061°33'0 0.0
2017-Dec-08 20:33N 16°14' W 061°33'0 0.0
2017-Dec-08 20:15N 16°14' W 061°33'0 0.0
2017-Dec-08 20:00N 16°14' W 061°33'0 0.0
2017-Dec-08 19:27N 16°14' W 061°33'0 0.0
2017-Dec-08 18:42N 16°14' W 061°33'0 0.0
2017-Dec-08 17:51N 16°14' W 061°33'0 0.0
2017-Dec-08 17:21N 16°14' W 061°33'0 0.0
2017-Dec-08 16:33N 16°14' W 061°33'0 0.1
2017-Dec-08 16:30N 16°14' W 061°33'0 0.0
2017-Dec-08 16:00N 16°14' W 061°33'0 0.0
2017-Dec-08 15:15N 16°14' W 061°33'0 0.0
2017-Dec-08 15:00N 16°14' W 061°33'0 0.0
2017-Dec-08 14:24N 16°14' W 061°33'0 0.0
2017-Dec-08 14:00N 16°14' W 061°33'0 0.0
2017-Dec-08 13:30N 16°14' W 061°33'0 0.0
2017-Dec-08 12:45N 16°14' W 061°33'0 0.0
2017-Dec-08 12:30N 16°14' W 061°33'0 0.0
2017-Dec-08 11:51N 16°14' W 061°33'0 0.0
2017-Dec-08 11:24N 16°14' W 061°33'0 0.0
2017-Dec-08 10:27N 16°14' W 061°33'1 2.5
2017-Dec-08 10:00N 16°13' W 061°32'16 2.3
2017-Dec-08 02:54N 15°57' W 061°35'28 8.7
2017-Dec-07 23:41N 16°18' W 061°56'311.3
2017-Dec-07 23:23N 16°21' W 061°56'411.6
2017-Dec-07 23:00N 16°25' W 061°54'611.5
2017-Dec-07 22:30N 16°30' W 061°51'611.2
2017-Dec-07 22:00N 16°35' W 061°48'611.1
2017-Dec-07 21:30N 16°39' W 061°45'4 7.2
2017-Dec-07 21:00N 16°43' W 061°46'4 8.9
2017-Dec-07 20:30N 16°45' W 061°50'5 9.3
2017-Dec-07 20:00N 16°48' W 061°54'4 8.9
2017-Dec-07 19:30N 16°51' W 061°57'510.9
2017-Dec-07 19:00N 16°57' W 061°57'611.2
2017-Dec-07 18:30N 17°02' W 061°57'510.5
2017-Dec-07 18:00N 17°07' W 061°55'4 7.8
2017-Dec-07 17:30N 17°08' W 061°51'0 0.0
2017-Dec-07 16:59N 17°08' W 061°51'0 0.0
2017-Dec-07 16:29N 17°08' W 061°51'0 0.0
2017-Dec-07 15:59N 17°08' W 061°51'0 0.0
2017-Dec-07 15:29N 17°08' W 061°51'0 0.0
2017-Dec-07 14:59N 17°08' W 061°51'0 0.0
2017-Dec-07 14:29N 17°08' W 061°51'0 0.0
2017-Dec-07 13:59N 17°08' W 061°51'0 0.0
2017-Dec-07 13:26N 17°08' W 061°51'0 0.0
2017-Dec-07 12:59N 17°08' W 061°51'0 0.0
2017-Dec-07 12:29N 17°08' W 061°51'0 0.1
2017-Dec-07 11:59N 17°08' W 061°51'0 0.0
2017-Dec-07 11:29N 17°08' W 061°51'0 0.0
2017-Dec-07 10:59N 17°08' W 061°51'0 0.0
2017-Dec-07 10:29N 17°08' W 061°51'0 0.0
2017-Dec-07 09:59N 17°08' W 061°51'0 0.0
2017-Dec-07 09:26N 17°08' W 061°51'0 0.0
2017-Dec-07 08:59N 17°08' W 061°51'0 0.0
2017-Dec-07 08:29N 17°08' W 061°51'0 0.0
2017-Dec-07 07:59N 17°08' W 061°51'0 0.0
2017-Dec-07 07:29N 17°08' W 061°51'0 0.0
2017-Dec-07 06:59N 17°08' W 061°51'0 0.0
2017-Dec-07 06:29N 17°08' W 061°51'0 0.0
2017-Dec-07 06:01N 17°08' W 061°51'0 0.0
2017-Dec-07 05:31N 17°08' W 061°51'0 0.0
2017-Dec-07 05:01N 17°08' W 061°51'2 4.3
2017-Dec-07 04:30N 17°08' W 061°53'1 1.6
2017-Dec-07 04:01N 17°08' W 061°54'1 1.1
2017-Dec-07 03:31N 17°09' W 061°55'510.3
2017-Dec-07 03:01N 17°11' W 061°60'510.4
2017-Dec-07 02:31N 17°13' W 062°05'511.0
2017-Dec-07 02:01N 17°15' W 062°10'510.9
2017-Dec-07 01:30N 17°18' W 062°15'510.7
2017-Dec-07 01:00N 17°20' W 062°20'510.5
2017-Dec-07 00:30N 17°23' W 062°25'510.3
2017-Dec-07 00:01N 17°26' W 062°29'  

Dump ship's entire track history